Date,TemperatureHighF,TemperatureAvgF,TemperatureLowF,DewpointHighF,DewpointAvgF,DewpointLowF,HumidityHigh,HumidityAvg,HumidityLow,PressureMaxIn,PressureMinIn,WindSpeedMaxMPH,WindSpeedAvgMPH,GustSpeedMaxMPH,PrecipitationSumIn
2013-8-1,80,68,63,66,63,60,98,85,56,30.10,30.01,6,1,12,0.01
2013-8-2,76,67,60,67,62,58,93,85,71,30.14,30.03,6,1,8,0.00
2013-8-3,79,69,65,65,60,55,94,72,51,30.14,30.07,6,2,10,0.00
2013-8-4,81,69,63,66,61,56,93,78,55,30.14,30.07,6,2,14,0.00
2013-8-5,76,66,61,67,61,54,92,82,71,30.15,30.08,5,1,11,0.00
2013-8-6,76,68,63,69,64,62,98,90,73,30.13,30.06,5,1,9,0.39
2013-8-7,66,65,63,65,64,62,99,98,97,30.17,30.10,5,1,9,0.80
2013-8-8,71,66,64,69,65,63,99,98,94,30.19,30.13,6,2,8,0.15
2013-8-9,73,68,65,70,67,64,98,95,85,30.21,30.14,8,3,10,0.22
2013-8-10,78,69,66,72,67,65,98,92,72,30.23,30.16,6,2,11,0.57
2013-8-11,78,69,66,70,65,62,96,88,71,30.25,30.16,4,1,11,0.51
2013-8-12,67,67,67,66,66,65,95,95,94,30.21,30.21,2,1,3,0.51
2013-8-16,69,58,54,58,49,-100,92,81,64,30.28,30.21,2,0,7,0.00
2013-8-17,65,58,54,59,55,51,98,91,80,30.28,30.22,1,0,5,0.20
2013-8-18,69,60,57,65,58,-100,98,95,85,30.35,30.24,5,1,10,0.30
2013-8-19,66,59,59,65,50,-100,98,97,95,30.32,30.21,4,0,5,1.71
2013-8-20,73,63,59,68,61,-100,99,96,82,30.32,30.23,2,0,5,0.03
2013-8-21,69,63,61,65,62,60,98,96,87,30.36,30.27,4,1,6,0.40
2013-8-22,75,67,63,68,64,61,97,91,76,30.30,30.16,3,1,8,0.20
2013-8-23,80,68,60,69,63,59,97,86,55,30.19,30.09,5,1,10,0.32
2013-8-24,74,64,57,65,60,55,97,87,69,30.40,30.17,2,0,8,0.32
2013-8-25,73,60,54,62,54,-100,93,83,69,30.50,30.40,3,0,7,0.00
2013-8-26,72,62,55,65,58,53,95,86,67,30.47,30.27,4,0,6,0.00
2013-8-27,76,64,59,66,58,54,89,81,60,30.29,30.17,2,0,6,0.00
2013-8-28,77,73,67,69,66,62,87,80,71,30.15,30.08,7,3,9,0.00
2013-8-29,81,72,66,69,65,62,90,81,61,30.09,30.02,6,3,14,0.00
2013-8-30,72,68,65,68,66,63,97,92,84,30.12,30.03,3,0,6,0.00
2013-8-31,78,68,63,69,65,62,98,92,71,30.08,29.99,5,1,9,0.08